sensor_id;sensor_type;location;lat;lon;timestamp;temperature;humidity
21033;DHT22;10675;47.976;7.824;2024-01-16T00:00:34;-1.90;99.90
21033;DHT22;10675;47.976;7.824;2024-01-16T00:03:00;-1.80;99.90
21033;DHT22;10675;47.976;7.824;2024-01-16T00:05:25;-1.80;99.90
21033;DHT22;10675;47.976;7.824;2024-01-16T00:07:51;-1.80;99.90
21033;DHT22;10675;47.976;7.824;2024-01-16T00:10:17;-1.80;99.90
21033;DHT22;10675;47.976;7.824;2024-01-16T00:12:42;-1.80;99.90
21033;DHT22;10675;47.976;7.824;2024-01-16T00:15:08;-1.90;99.90
21033;DHT22;10675;47.976;7.824;2024-01-16T00:17:34;-1.90;99.90
21033;DHT22;10675;47.976;7.824;2024-01-16T00:20:00;-2.00;99.90
21033;DHT22;10675;47.976;7.824;2024-01-16T00:22:29;-2.00;99.90
21033;DHT22;10675;47.976;7.824;2024-01-16T00:24:55;-2.00;99.90
21033;DHT22;10675;47.976;7.824;2024-01-16T00:27:20;-2.00;99.90
21033;DHT22;10675;47.976;7.824;2024-01-16T00:29:46;-2.10;99.90
21033;DHT22;10675;47.976;7.824;2024-01-16T00:32:12;-2.00;99.90
21033;DHT22;10675;47.976;7.824;2024-01-16T00:34:41;-2.10;99.90
21033;DHT22;10675;47.976;7.824;2024-01-16T00:37:07;-2.00;99.90
21033;DHT22;10675;47.976;7.824;2024-01-16T00:39:33;-2.10;99.90
21033;DHT22;10675;47.976;7.824;2024-01-16T00:41:58;-2.20;99.90
21033;DHT22;10675;47.976;7.824;2024-01-16T00:44:24;-2.10;99.90
21033;DHT22;10675;47.976;7.824;2024-01-16T00:46:50;-2.20;99.90
21033;DHT22;10675;47.976;7.824;2024-01-16T00:49:15;-2.20;99.90
21033;DHT22;10675;47.976;7.824;2024-01-16T00:51:41;-2.30;99.90
21033;DHT22;10675;47.976;7.824;2024-01-16T00:54:06;-2.40;99.90
21033;DHT22;10675;47.976;7.824;2024-01-16T00:56:35;-2.40;99.90
21033;DHT22;10675;47.976;7.824;2024-01-16T00:59:01;-2.40;99.90
21033;DHT22;10675;47.976;7.824;2024-01-16T01:01:27;-2.40;99.90
21033;DHT22;10675;47.976;7.824;2024-01-16T01:03:52;-2.50;99.90
21033;DHT22;10675;47.976;7.824;2024-01-16T01:06:18;-2.50;99.90
21033;DHT22;10675;47.976;7.824;2024-01-16T01:08:44;-2.50;99.90
21033;DHT22;10675;47.976;7.824;2024-01-16T01:11:10;-2.50;99.90
21033;DHT22;10675;47.976;7.824;2024-01-16T01:13:36;-2.60;99.90
21033;DHT22;10675;47.976;7.824;2024-01-16T01:16:01;-2.70;99.90
21033;DHT22;10675;47.976;7.824;2024-01-16T01:18:27;-2.70;99.90
21033;DHT22;10675;47.976;7.824;2024-01-16T01:20:52;-2.70;99.90
21033;DHT22;10675;47.976;7.824;2024-01-16T01:23:18;-2.80;99.90
21033;DHT22;10675;47.976;7.824;2024-01-16T01:25:44;-2.80;99.90
21033;DHT22;10675;47.976;7.824;2024-01-16T01:28:10;-2.90;99.90
21033;DHT22;10675;47.976;7.824;2024-01-16T01:30:37;-2.80;99.90
21033;DHT22;10675;47.976;7.824;2024-01-16T01:33:02;-2.90;99.90
21033;DHT22;10675;47.976;7.824;2024-01-16T01:35:29;-2.90;99.90
21033;DHT22;10675;47.976;7.824;2024-01-16T01:37:54;-2.80;99.90
21033;DHT22;10675;47.976;7.824;2024-01-16T01:40:20;-2.80;99.90
21033;DHT22;10675;47.976;7.824;2024-01-16T01:42:46;-2.80;99.90
21033;DHT22;10675;47.976;7.824;2024-01-16T01:45:11;-2.70;99.90
21033;DHT22;10675;47.976;7.824;2024-01-16T01:47:38;-2.70;99.90
21033;DHT22;10675;47.976;7.824;2024-01-16T01:50:06;-2.80;99.90
21033;DHT22;10675;47.976;7.824;2024-01-16T01:52:32;-2.80;99.90
21033;DHT22;10675;47.976;7.824;2024-01-16T01:54:58;-2.80;99.90
21033;DHT22;10675;47.976;7.824;2024-01-16T01:57:24;-3.00;99.90
21033;DHT22;10675;47.976;7.824;2024-01-16T01:59:50;-2.90;99.90
21033;DHT22;10675;47.976;7.824;2024-01-16T02:02:16;-3.00;99.90
21033;DHT22;10675;47.976;7.824;2024-01-16T02:04:43;-3.00;99.90
21033;DHT22;10675;47.976;7.824;2024-01-16T02:07:10;-3.10;99.90
21033;DHT22;10675;47.976;7.824;2024-01-16T02:09:35;-3.00;99.90
21033;DHT22;10675;47.976;7.824;2024-01-16T02:12:04;-3.00;99.90
21033;DHT22;10675;47.976;7.824;2024-01-16T02:14:30;-3.20;99.90
21033;DHT22;10675;47.976;7.824;2024-01-16T02:16:55;-3.30;99.90
21033;DHT22;10675;47.976;7.824;2024-01-16T02:19:21;-3.20;99.90
21033;DHT22;10675;47.976;7.824;2024-01-16T02:21:51;-3.30;99.90
21033;DHT22;10675;47.976;7.824;2024-01-16T02:24:19;-3.20;99.90
21033;DHT22;10675;47.976;7.824;2024-01-16T02:26:45;-3.20;99.90
21033;DHT22;10675;47.976;7.824;2024-01-16T02:29:11;-3.20;99.90
21033;DHT22;10675;47.976;7.824;2024-01-16T02:31:36;-3.40;99.90
21033;DHT22;10675;47.976;7.824;2024-01-16T02:34:03;-3.50;99.90
21033;DHT22;10675;47.976;7.824;2024-01-16T02:36:32;-3.40;99.90
21033;DHT22;10675;47.976;7.824;2024-01-16T02:38:58;-3.50;99.90
21033;DHT22;10675;47.976;7.824;2024-01-16T02:41:23;-3.30;99.90
21033;DHT22;10675;47.976;7.824;2024-01-16T02:43:49;-3.40;99.90
21033;DHT22;10675;47.976;7.824;2024-01-16T02:46:14;-3.40;99.90
21033;DHT22;10675;47.976;7.824;2024-01-16T02:48:40;-3.40;99.90
21033;DHT22;10675;47.976;7.824;2024-01-16T02:51:08;-3.50;99.90
21033;DHT22;10675;47.976;7.824;2024-01-16T02:53:34;-3.30;99.90
21033;DHT22;10675;47.976;7.824;2024-01-16T02:55:59;-3.50;99.90
21033;DHT22;10675;47.976;7.824;2024-01-16T02:58:28;-3.40;99.90
21033;DHT22;10675;47.976;7.824;2024-01-16T03:00:55;-3.30;99.90
21033;DHT22;10675;47.976;7.824;2024-01-16T03:03:20;-3.40;99.90
21033;DHT22;10675;47.976;7.824;2024-01-16T03:05:47;-3.40;99.90
21033;DHT22;10675;47.976;7.824;2024-01-16T03:08:12;-3.50;99.90
21033;DHT22;10675;47.976;7.824;2024-01-16T03:10:38;-3.50;99.90
21033;DHT22;10675;47.976;7.824;2024-01-16T03:13:04;-3.60;99.90
21033;DHT22;10675;47.976;7.824;2024-01-16T03:15:29;-3.70;99.90
21033;DHT22;10675;47.976;7.824;2024-01-16T03:17:56;-3.70;99.90
21033;DHT22;10675;47.976;7.824;2024-01-16T03:20:22;-3.60;99.90
21033;DHT22;10675;47.976;7.824;2024-01-16T03:22:48;-3.60;99.90
21033;DHT22;10675;47.976;7.824;2024-01-16T03:25:14;-3.60;99.90
21033;DHT22;10675;47.976;7.824;2024-01-16T03:27:39;-3.70;99.90
21033;DHT22;10675;47.976;7.824;2024-01-16T03:30:06;-3.70;99.90
21033;DHT22;10675;47.976;7.824;2024-01-16T03:32:32;-3.70;99.90
21033;DHT22;10675;47.976;7.824;2024-01-16T03:34:57;-3.70;99.90
21033;DHT22;10675;47.976;7.824;2024-01-16T03:37:23;-3.70;99.90
21033;DHT22;10675;47.976;7.824;2024-01-16T03:39:48;-3.60;99.90
21033;DHT22;10675;47.976;7.824;2024-01-16T03:42:15;-3.70;99.90
21033;DHT22;10675;47.976;7.824;2024-01-16T03:44:41;-3.60;99.90
21033;DHT22;10675;47.976;7.824;2024-01-16T03:47:07;-3.60;99.90
21033;DHT22;10675;47.976;7.824;2024-01-16T03:49:33;-3.60;99.90
21033;DHT22;10675;47.976;7.824;2024-01-16T03:51:58;-3.60;99.90
21033;DHT22;10675;47.976;7.824;2024-01-16T03:54:24;-3.60;99.90
21033;DHT22;10675;47.976;7.824;2024-01-16T03:56:50;-3.60;99.90
21033;DHT22;10675;47.976;7.824;2024-01-16T03:59:16;-3.60;99.90
21033;DHT22;10675;47.976;7.824;2024-01-16T04:01:41;-3.50;99.90
21033;DHT22;10675;47.976;7.824;2024-01-16T04:04:09;-3.50;99.90
21033;DHT22;10675;47.976;7.824;2024-01-16T04:06:35;-3.70;99.90
21033;DHT22;10675;47.976;7.824;2024-01-16T04:09:01;-3.70;99.90
21033;DHT22;10675;47.976;7.824;2024-01-16T04:11:28;-3.70;99.90
21033;DHT22;10675;47.976;7.824;2024-01-16T04:13:54;-3.70;99.90
21033;DHT22;10675;47.976;7.824;2024-01-16T04:16:19;-3.70;99.90
21033;DHT22;10675;47.976;7.824;2024-01-16T04:18:45;-3.70;99.90
21033;DHT22;10675;47.976;7.824;2024-01-16T04:21:10;-3.60;99.90
21033;DHT22;10675;47.976;7.824;2024-01-16T04:23:36;-3.60;99.90
21033;DHT22;10675;47.976;7.824;2024-01-16T04:26:02;-3.60;99.90
21033;DHT22;10675;47.976;7.824;2024-01-16T04:28:28;-3.60;99.90
21033;DHT22;10675;47.976;7.824;2024-01-16T04:30:53;-3.60;99.90
21033;DHT22;10675;47.976;7.824;2024-01-16T04:33:19;-3.60;99.90
21033;DHT22;10675;47.976;7.824;2024-01-16T04:35:45;-3.60;99.90
21033;DHT22;10675;47.976;7.824;2024-01-16T04:38:10;-3.70;99.90
21033;DHT22;10675;47.976;7.824;2024-01-16T04:40:36;-3.60;99.90
21033;DHT22;10675;47.976;7.824;2024-01-16T04:43:02;-3.70;99.90
21033;DHT22;10675;47.976;7.824;2024-01-16T04:45:28;-3.70;99.90
21033;DHT22;10675;47.976;7.824;2024-01-16T04:47:53;-3.70;99.90
21033;DHT22;10675;47.976;7.824;2024-01-16T04:50:19;-3.80;99.90
21033;DHT22;10675;47.976;7.824;2024-01-16T04:52:44;-3.80;99.90
21033;DHT22;10675;47.976;7.824;2024-01-16T04:55:10;-3.80;99.90
21033;DHT22;10675;47.976;7.824;2024-01-16T04:57:35;-3.80;99.90
21033;DHT22;10675;47.976;7.824;2024-01-16T05:00:01;-3.90;99.90
21033;DHT22;10675;47.976;7.824;2024-01-16T05:02:26;-3.80;99.90
21033;DHT22;10675;47.976;7.824;2024-01-16T05:04:52;-3.70;99.90
21033;DHT22;10675;47.976;7.824;2024-01-16T05:07:18;-3.80;99.90
21033;DHT22;10675;47.976;7.824;2024-01-16T05:09:46;-3.90;99.90
21033;DHT22;10675;47.976;7.824;2024-01-16T05:12:12;-3.90;99.90
21033;DHT22;10675;47.976;7.824;2024-01-16T05:14:37;-3.80;99.90
21033;DHT22;10675;47.976;7.824;2024-01-16T05:17:03;-3.80;99.90
21033;DHT22;10675;47.976;7.824;2024-01-16T05:19:29;-3.80;99.90
21033;DHT22;10675;47.976;7.824;2024-01-16T05:21:54;-3.80;99.90
21033;DHT22;10675;47.976;7.824;2024-01-16T05:24:20;-3.80;99.90
21033;DHT22;10675;47.976;7.824;2024-01-16T05:26:45;-3.80;99.90
21033;DHT22;10675;47.976;7.824;2024-01-16T05:29:11;-3.90;99.90
21033;DHT22;10675;47.976;7.824;2024-01-16T05:31:41;-3.90;99.90
21033;DHT22;10675;47.976;7.824;2024-01-16T05:34:07;-3.90;99.90
21033;DHT22;10675;47.976;7.824;2024-01-16T05:36:33;-3.80;99.90
21033;DHT22;10675;47.976;7.824;2024-01-16T05:38:58;-3.90;99.90
21033;DHT22;10675;47.976;7.824;2024-01-16T05:41:24;-3.90;99.90
21033;DHT22;10675;47.976;7.824;2024-01-16T05:43:49;-3.90;99.90
21033;DHT22;10675;47.976;7.824;2024-01-16T05:46:15;-4.00;99.90
21033;DHT22;10675;47.976;7.824;2024-01-16T05:48:40;-4.00;99.90
21033;DHT22;10675;47.976;7.824;2024-01-16T05:51:06;-4.00;99.90
21033;DHT22;10675;47.976;7.824;2024-01-16T05:53:31;-4.10;99.90
21033;DHT22;10675;47.976;7.824;2024-01-16T05:55:57;-4.10;99.90
21033;DHT22;10675;47.976;7.824;2024-01-16T05:58:22;-3.90;99.90
21033;DHT22;10675;47.976;7.824;2024-01-16T06:00:48;-4.00;99.90
21033;DHT22;10675;47.976;7.824;2024-01-16T06:03:13;-4.00;99.90
21033;DHT22;10675;47.976;7.824;2024-01-16T06:05:39;-4.10;99.90
21033;DHT22;10675;47.976;7.824;2024-01-16T06:08:05;-4.10;99.90
21033;DHT22;10675;47.976;7.824;2024-01-16T06:10:31;-4.10;99.90
21033;DHT22;10675;47.976;7.824;2024-01-16T06:12:56;-4.00;99.90
21033;DHT22;10675;47.976;7.824;2024-01-16T06:15:22;-4.00;99.90
21033;DHT22;10675;47.976;7.824;2024-01-16T06:17:48;-4.10;99.90
21033;DHT22;10675;47.976;7.824;2024-01-16T06:20:14;-4.10;99.90
21033;DHT22;10675;47.976;7.824;2024-01-16T06:22:39;-4.10;99.90
21033;DHT22;10675;47.976;7.824;2024-01-16T06:25:05;-4.10;99.90
21033;DHT22;10675;47.976;7.824;2024-01-16T06:27:31;-4.10;99.90
21033;DHT22;10675;47.976;7.824;2024-01-16T06:29:58;-4.10;99.90
21033;DHT22;10675;47.976;7.824;2024-01-16T06:32:23;-4.10;99.90
21033;DHT22;10675;47.976;7.824;2024-01-16T06:34:49;-4.10;99.90
21033;DHT22;10675;47.976;7.824;2024-01-16T06:37:14;-4.10;99.90
21033;DHT22;10675;47.976;7.824;2024-01-16T06:39:40;-4.10;99.90
21033;DHT22;10675;47.976;7.824;2024-01-16T06:42:05;-4.10;99.90
21033;DHT22;10675;47.976;7.824;2024-01-16T06:44:31;-3.80;99.90
21033;DHT22;10675;47.976;7.824;2024-01-16T06:46:57;-4.00;99.90
21033;DHT22;10675;47.976;7.824;2024-01-16T06:49:22;-4.00;99.90
21033;DHT22;10675;47.976;7.824;2024-01-16T06:51:48;-4.10;99.90
21033;DHT22;10675;47.976;7.824;2024-01-16T06:54:13;-4.20;99.90
21033;DHT22;10675;47.976;7.824;2024-01-16T06:56:39;-4.10;99.90
21033;DHT22;10675;47.976;7.824;2024-01-16T06:59:04;-4.20;99.90
21033;DHT22;10675;47.976;7.824;2024-01-16T07:01:30;-4.10;99.90
21033;DHT22;10675;47.976;7.824;2024-01-16T07:03:56;-4.20;99.90
21033;DHT22;10675;47.976;7.824;2024-01-16T07:06:21;-3.40;99.90
21033;DHT22;10675;47.976;7.824;2024-01-16T07:08:47;-3.00;99.90
21033;DHT22;10675;47.976;7.824;2024-01-16T07:11:13;-2.70;99.90
21033;DHT22;10675;47.976;7.824;2024-01-16T07:13:43;-2.80;99.90
21033;DHT22;10675;47.976;7.824;2024-01-16T07:16:12;-2.90;99.90
21033;DHT22;10675;47.976;7.824;2024-01-16T07:18:38;-3.00;99.90
21033;DHT22;10675;47.976;7.824;2024-01-16T07:21:04;-2.80;99.90
21033;DHT22;10675;47.976;7.824;2024-01-16T07:23:30;-3.50;99.90
21033;DHT22;10675;47.976;7.824;2024-01-16T07:25:55;-3.90;99.90
21033;DHT22;10675;47.976;7.824;2024-01-16T07:28:21;-4.30;99.90
21033;DHT22;10675;47.976;7.824;2024-01-16T07:30:47;-4.10;99.90
21033;DHT22;10675;47.976;7.824;2024-01-16T07:33:13;-4.30;99.90
21033;DHT22;10675;47.976;7.824;2024-01-16T07:35:39;-4.30;99.90
21033;DHT22;10675;47.976;7.824;2024-01-16T07:38:06;-4.40;99.90
21033;DHT22;10675;47.976;7.824;2024-01-16T07:40:32;-4.40;99.90
21033;DHT22;10675;47.976;7.824;2024-01-16T07:42:57;-4.40;99.90
21033;DHT22;10675;47.976;7.824;2024-01-16T07:45:24;-4.50;99.90
21033;DHT22;10675;47.976;7.824;2024-01-16T07:47:49;-4.50;99.90
21033;DHT22;10675;47.976;7.824;2024-01-16T07:50:15;-4.40;99.90
21033;DHT22;10675;47.976;7.824;2024-01-16T07:52:40;-4.40;99.90
21033;DHT22;10675;47.976;7.824;2024-01-16T07:55:06;-4.30;99.90
21033;DHT22;10675;47.976;7.824;2024-01-16T07:57:31;-4.20;99.90
21033;DHT22;10675;47.976;7.824;2024-01-16T07:59:57;-4.30;99.90
21033;DHT22;10675;47.976;7.824;2024-01-16T08:02:30;-4.30;99.90
21033;DHT22;10675;47.976;7.824;2024-01-16T08:04:57;-4.30;99.90
21033;DHT22;10675;47.976;7.824;2024-01-16T08:07:22;-4.30;99.90
21033;DHT22;10675;47.976;7.824;2024-01-16T08:09:48;-4.20;99.90
21033;DHT22;10675;47.976;7.824;2024-01-16T08:12:13;-4.20;99.90
21033;DHT22;10675;47.976;7.824;2024-01-16T08:14:39;-4.20;99.90
21033;DHT22;10675;47.976;7.824;2024-01-16T08:17:04;-4.10;99.90
21033;DHT22;10675;47.976;7.824;2024-01-16T08:19:30;-4.00;99.90
21033;DHT22;10675;47.976;7.824;2024-01-16T08:21:56;-3.80;99.90
21033;DHT22;10675;47.976;7.824;2024-01-16T08:24:22;-3.40;99.90
21033;DHT22;10675;47.976;7.824;2024-01-16T08:26:48;-3.20;99.90
21033;DHT22;10675;47.976;7.824;2024-01-16T08:29:13;-3.40;99.90
21033;DHT22;10675;47.976;7.824;2024-01-16T08:31:39;-3.50;99.90
21033;DHT22;10675;47.976;7.824;2024-01-16T08:34:05;-3.30;99.90
21033;DHT22;10675;47.976;7.824;2024-01-16T08:36:31;-3.20;99.90
21033;DHT22;10675;47.976;7.824;2024-01-16T08:38:56;-3.10;99.90
21033;DHT22;10675;47.976;7.824;2024-01-16T08:41:22;-3.10;99.90
21033;DHT22;10675;47.976;7.824;2024-01-16T08:43:47;-2.90;99.90
21033;DHT22;10675;47.976;7.824;2024-01-16T08:46:13;-2.80;99.90
21033;DHT22;10675;47.976;7.824;2024-01-16T08:48:38;-2.80;99.90
21033;DHT22;10675;47.976;7.824;2024-01-16T08:51:10;-2.70;99.90
21033;DHT22;10675;47.976;7.824;2024-01-16T08:53:37;-2.60;99.90
21033;DHT22;10675;47.976;7.824;2024-01-16T08:56:03;-2.50;99.90
21033;DHT22;10675;47.976;7.824;2024-01-16T08:58:32;-2.50;99.90
21033;DHT22;10675;47.976;7.824;2024-01-16T09:01:04;-2.40;99.90
21033;DHT22;10675;47.976;7.824;2024-01-16T09:03:31;-2.20;99.90
21033;DHT22;10675;47.976;7.824;2024-01-16T09:05:57;-2.20;99.90
21033;DHT22;10675;47.976;7.824;2024-01-16T09:08:23;-2.10;99.90
21033;DHT22;10675;47.976;7.824;2024-01-16T09:10:48;-1.90;99.90
21033;DHT22;10675;47.976;7.824;2024-01-16T09:13:14;-1.80;99.90
21033;DHT22;10675;47.976;7.824;2024-01-16T09:15:39;-1.70;99.90
21033;DHT22;10675;47.976;7.824;2024-01-16T09:18:05;-1.60;99.90
21033;DHT22;10675;47.976;7.824;2024-01-16T09:20:31;-1.50;99.90
21033;DHT22;10675;47.976;7.824;2024-01-16T09:22:57;-1.30;99.90
21033;DHT22;10675;47.976;7.824;2024-01-16T09:25:22;-1.30;99.90
21033;DHT22;10675;47.976;7.824;2024-01-16T09:27:52;-1.30;99.90
21033;DHT22;10675;47.976;7.824;2024-01-16T09:30:18;-1.30;99.90
21033;DHT22;10675;47.976;7.824;2024-01-16T09:32:44;-1.10;99.90
21033;DHT22;10675;47.976;7.824;2024-01-16T09:35:10;-1.00;99.90
21033;DHT22;10675;47.976;7.824;2024-01-16T09:37:36;-0.90;99.90
21033;DHT22;10675;47.976;7.824;2024-01-16T09:40:02;-0.90;99.90
21033;DHT22;10675;47.976;7.824;2024-01-16T09:42:30;-0.90;99.90
21033;DHT22;10675;47.976;7.824;2024-01-16T09:44:56;-0.70;99.90
21033;DHT22;10675;47.976;7.824;2024-01-16T09:47:24;-0.60;99.90
21033;DHT22;10675;47.976;7.824;2024-01-16T09:49:49;-0.50;99.90
21033;DHT22;10675;47.976;7.824;2024-01-16T09:52:15;-0.40;99.90
21033;DHT22;10675;47.976;7.824;2024-01-16T09:54:40;-0.40;99.90
21033;DHT22;10675;47.976;7.824;2024-01-16T09:57:07;-1.70;99.50
21033;DHT22;10675;47.976;7.824;2024-01-16T09:59:35;-0.30;99.60
21033;DHT22;10675;47.976;7.824;2024-01-16T10:02:01;-0.30;99.90
21033;DHT22;10675;47.976;7.824;2024-01-16T10:04:31;-0.20;99.90
21033;DHT22;10675;47.976;7.824;2024-01-16T10:06:57;-0.10;99.90
21033;DHT22;10675;47.976;7.824;2024-01-16T10:09:23;-0.20;99.20
21033;DHT22;10675;47.976;7.824;2024-01-16T10:11:50;-0.30;99.90
21033;DHT22;10675;47.976;7.824;2024-01-16T10:14:17;-0.20;99.90
21033;DHT22;10675;47.976;7.824;2024-01-16T10:17:02;-0.30;99.90
21033;DHT22;10675;47.976;7.824;2024-01-16T10:19:31;-0.10;99.90
21033;DHT22;10675;47.976;7.824;2024-01-16T10:22:06;-0.20;99.90
21033;DHT22;10675;47.976;7.824;2024-01-16T10:24:32;-0.20;99.90
21033;DHT22;10675;47.976;7.824;2024-01-16T10:27:01;-0.20;99.90
21033;DHT22;10675;47.976;7.824;2024-01-16T10:29:29;-0.10;99.90
21033;DHT22;10675;47.976;7.824;2024-01-16T10:31:58;-0.10;99.90
21033;DHT22;10675;47.976;7.824;2024-01-16T10:34:24;-0.10;99.90
21033;DHT22;10675;47.976;7.824;2024-01-16T10:36:51;0.00;99.90
21033;DHT22;10675;47.976;7.824;2024-01-16T10:39:18;0.10;99.90
21033;DHT22;10675;47.976;7.824;2024-01-16T10:41:54;0.20;99.90
21033;DHT22;10675;47.976;7.824;2024-01-16T10:44:20;0.20;99.40
21033;DHT22;10675;47.976;7.824;2024-01-16T10:46:46;0.20;99.60
21033;DHT22;10675;47.976;7.824;2024-01-16T10:49:12;0.30;99.60
21033;DHT22;10675;47.976;7.824;2024-01-16T10:51:38;0.40;99.30
21033;DHT22;10675;47.976;7.824;2024-01-16T10:54:12;0.40;98.90
21033;DHT22;10675;47.976;7.824;2024-01-16T10:56:44;0.50;98.70
21033;DHT22;10675;47.976;7.824;2024-01-16T10:59:18;0.50;98.00
21033;DHT22;10675;47.976;7.824;2024-01-16T11:01:49;0.70;98.20
21033;DHT22;10675;47.976;7.824;2024-01-16T11:04:18;0.80;97.30
21033;DHT22;10675;47.976;7.824;2024-01-16T11:06:44;0.80;97.70
21033;DHT22;10675;47.976;7.824;2024-01-16T11:09:13;0.90;96.60
21033;DHT22;10675;47.976;7.824;2024-01-16T11:11:41;0.90;96.80
21033;DHT22;10675;47.976;7.824;2024-01-16T11:14:07;0.70;96.10
21033;DHT22;10675;47.976;7.824;2024-01-16T11:16:33;0.70;97.00
21033;DHT22;10675;47.976;7.824;2024-01-16T11:18:59;0.60;97.20
21033;DHT22;10675;47.976;7.824;2024-01-16T11:21:26;0.60;97.50
21033;DHT22;10675;47.976;7.824;2024-01-16T11:23:52;0.60;97.90
21033;DHT22;10675;47.976;7.824;2024-01-16T11:26:44;0.70;98.10
21033;DHT22;10675;47.976;7.824;2024-01-16T11:31:57;0.90;98.10
21033;DHT22;10675;47.976;7.824;2024-01-16T11:37:12;0.90;97.30
21033;DHT22;10675;47.976;7.824;2024-01-16T11:39:38;0.90;98.30
21033;DHT22;10675;47.976;7.824;2024-01-16T11:42:05;0.90;98.00
21033;DHT22;10675;47.976;7.824;2024-01-16T11:44:47;1.00;97.70
21033;DHT22;10675;47.976;7.824;2024-01-16T11:47:19;1.00;96.60
21033;DHT22;10675;47.976;7.824;2024-01-16T11:49:50;1.10;97.00
21033;DHT22;10675;47.976;7.824;2024-01-16T11:52:43;1.30;96.10
21033;DHT22;10675;47.976;7.824;2024-01-16T11:55:28;1.40;95.90
21033;DHT22;10675;47.976;7.824;2024-01-16T12:00:40;1.50;95.50
21033;DHT22;10675;47.976;7.824;2024-01-16T12:03:07;1.40;94.50
21033;DHT22;10675;47.976;7.824;2024-01-16T12:05:33;1.30;93.70
21033;DHT22;10675;47.976;7.824;2024-01-16T12:07:58;1.50;94.00
21033;DHT22;10675;47.976;7.824;2024-01-16T12:10:24;1.60;93.40
21033;DHT22;10675;47.976;7.824;2024-01-16T12:12:51;1.70;93.60
21033;DHT22;10675;47.976;7.824;2024-01-16T12:15:21;1.80;93.40
21033;DHT22;10675;47.976;7.824;2024-01-16T12:17:53;1.90;92.60
21033;DHT22;10675;47.976;7.824;2024-01-16T12:20:20;2.00;92.80
21033;DHT22;10675;47.976;7.824;2024-01-16T12:22:53;1.90;92.00
21033;DHT22;10675;47.976;7.824;2024-01-16T12:25:20;1.90;91.30
21033;DHT22;10675;47.976;7.824;2024-01-16T12:27:53;2.00;91.30
21033;DHT22;10675;47.976;7.824;2024-01-16T12:30:19;2.00;91.20
21033;DHT22;10675;47.976;7.824;2024-01-16T12:32:44;2.00;90.90
21033;DHT22;10675;47.976;7.824;2024-01-16T12:35:11;2.00;90.30
21033;DHT22;10675;47.976;7.824;2024-01-16T12:37:37;2.00;90.50
21033;DHT22;10675;47.976;7.824;2024-01-16T12:40:02;2.10;90.20
21033;DHT22;10675;47.976;7.824;2024-01-16T12:42:28;2.10;90.20
21033;DHT22;10675;47.976;7.824;2024-01-16T12:44:53;2.20;90.20
21033;DHT22;10675;47.976;7.824;2024-01-16T12:47:20;2.30;89.20
21033;DHT22;10675;47.976;7.824;2024-01-16T12:49:46;2.40;89.30
21033;DHT22;10675;47.976;7.824;2024-01-16T12:52:21;2.40;88.10
21033;DHT22;10675;47.976;7.824;2024-01-16T12:54:59;2.30;88.20
21033;DHT22;10675;47.976;7.824;2024-01-16T12:57:31;2.20;87.50
21033;DHT22;10675;47.976;7.824;2024-01-16T12:59:56;2.10;87.40
21033;DHT22;10675;47.976;7.824;2024-01-16T13:02:26;1.90;87.60
21033;DHT22;10675;47.976;7.824;2024-01-16T13:04:58;2.40;89.30
21033;DHT22;10675;47.976;7.824;2024-01-16T13:07:25;2.60;88.60
21033;DHT22;10675;47.976;7.824;2024-01-16T13:10:09;2.50;88.10
21033;DHT22;10675;47.976;7.824;2024-01-16T13:12:35;2.50;87.60
21033;DHT22;10675;47.976;7.824;2024-01-16T13:15:01;2.50;87.60
21033;DHT22;10675;47.976;7.824;2024-01-16T13:17:31;2.50;86.90
21033;DHT22;10675;47.976;7.824;2024-01-16T13:19:57;2.50;88.30
21033;DHT22;10675;47.976;7.824;2024-01-16T13:22:22;2.50;86.60
21033;DHT22;10675;47.976;7.824;2024-01-16T13:24:48;2.50;86.50
21033;DHT22;10675;47.976;7.824;2024-01-16T13:27:14;2.60;85.60
21033;DHT22;10675;47.976;7.824;2024-01-16T13:29:39;2.50;84.30
21033;DHT22;10675;47.976;7.824;2024-01-16T13:32:05;2.40;85.00
21033;DHT22;10675;47.976;7.824;2024-01-16T13:34:31;2.50;86.20
21033;DHT22;10675;47.976;7.824;2024-01-16T13:36:58;2.60;85.80
21033;DHT22;10675;47.976;7.824;2024-01-16T13:39:27;2.70;85.40
21033;DHT22;10675;47.976;7.824;2024-01-16T13:41:53;2.70;84.70
21033;DHT22;10675;47.976;7.824;2024-01-16T13:44:19;2.80;85.20
21033;DHT22;10675;47.976;7.824;2024-01-16T13:46:44;2.90;83.20
21033;DHT22;10675;47.976;7.824;2024-01-16T13:49:10;2.80;83.50
21033;DHT22;10675;47.976;7.824;2024-01-16T13:51:35;3.00;83.20
21033;DHT22;10675;47.976;7.824;2024-01-16T13:54:01;3.00;83.20
21033;DHT22;10675;47.976;7.824;2024-01-16T13:56:26;3.00;81.60
21033;DHT22;10675;47.976;7.824;2024-01-16T13:58:52;3.10;82.10
21033;DHT22;10675;47.976;7.824;2024-01-16T14:01:17;3.20;81.80
21033;DHT22;10675;47.976;7.824;2024-01-16T14:03:45;3.30;80.40
21033;DHT22;10675;47.976;7.824;2024-01-16T14:06:12;3.40;81.50
21033;DHT22;10675;47.976;7.824;2024-01-16T14:08:38;3.50;80.30
21033;DHT22;10675;47.976;7.824;2024-01-16T14:11:04;3.50;79.00
21033;DHT22;10675;47.976;7.824;2024-01-16T14:13:29;3.40;77.80
21033;DHT22;10675;47.976;7.824;2024-01-16T14:15:55;3.40;78.20
21033;DHT22;10675;47.976;7.824;2024-01-16T14:18:22;3.30;78.70
21033;DHT22;10675;47.976;7.824;2024-01-16T14:20:48;3.40;78.90
21033;DHT22;10675;47.976;7.824;2024-01-16T14:23:13;3.30;80.00
21033;DHT22;10675;47.976;7.824;2024-01-16T14:25:39;3.30;80.30
21033;DHT22;10675;47.976;7.824;2024-01-16T14:28:05;3.40;81.00
21033;DHT22;10675;47.976;7.824;2024-01-16T14:30:35;3.90;82.90
21033;DHT22;10675;47.976;7.824;2024-01-16T14:33:01;4.30;79.80
21033;DHT22;10675;47.976;7.824;2024-01-16T14:35:27;4.60;77.90
21033;DHT22;10675;47.976;7.824;2024-01-16T14:37:53;4.90;77.50
21033;DHT22;10675;47.976;7.824;2024-01-16T14:40:19;5.70;76.30
21033;DHT22;10675;47.976;7.824;2024-01-16T14:42:51;5.70;74.40
21033;DHT22;10675;47.976;7.824;2024-01-16T14:45:21;4.80;71.80
21033;DHT22;10675;47.976;7.824;2024-01-16T14:47:47;4.70;73.60
21033;DHT22;10675;47.976;7.824;2024-01-16T14:50:14;5.00;72.30
21033;DHT22;10675;47.976;7.824;2024-01-16T14:52:42;4.70;73.20
21033;DHT22;10675;47.976;7.824;2024-01-16T14:55:08;4.20;74.80
21033;DHT22;10675;47.976;7.824;2024-01-16T14:57:34;4.40;76.70
21033;DHT22;10675;47.976;7.824;2024-01-16T15:00:11;4.50;76.90
21033;DHT22;10675;47.976;7.824;2024-01-16T15:02:44;4.60;75.90
21033;DHT22;10675;47.976;7.824;2024-01-16T15:05:09;4.20;76.50
21033;DHT22;10675;47.976;7.824;2024-01-16T15:07:35;3.50;77.20
21033;DHT22;10675;47.976;7.824;2024-01-16T15:10:04;3.10;80.90
21033;DHT22;10675;47.976;7.824;2024-01-16T15:12:31;2.90;82.70
21033;DHT22;10675;47.976;7.824;2024-01-16T15:14:57;2.70;82.20
21033;DHT22;10675;47.976;7.824;2024-01-16T15:17:22;2.40;83.00
21033;DHT22;10675;47.976;7.824;2024-01-16T15:19:48;2.00;85.10
21033;DHT22;10675;47.976;7.824;2024-01-16T15:22:13;1.80;86.40
21033;DHT22;10675;47.976;7.824;2024-01-16T15:24:39;1.70;87.90
21033;DHT22;10675;47.976;7.824;2024-01-16T15:27:04;1.50;87.80
21033;DHT22;10675;47.976;7.824;2024-01-16T15:29:30;1.40;88.70
21033;DHT22;10675;47.976;7.824;2024-01-16T15:31:55;1.20;89.90
21033;DHT22;10675;47.976;7.824;2024-01-16T15:34:22;1.20;90.00
21033;DHT22;10675;47.976;7.824;2024-01-16T15:36:48;1.10;90.30
21033;DHT22;10675;47.976;7.824;2024-01-16T15:39:14;1.00;90.40